Terminal Aerodrome Forecast
Issued by NWS Melbourne, FL

Home | Current Version | Previous Version | Text Only | Print | Product List | Glossary On
Versions: 1 2 3 4 5 6 7 8 9 10 11 12 13 14 15 16 17 18 19 20 21 22
000
FTUS42 KMLB 252020 AAA
TAFVRB
TAF AMD
KVRB 252020Z 2520/2618 28012G17KT P6SM SCT050
     FM260000 29004KT P6SM SKC
     FM260800 35009KT P6SM SKC
     FM261600 02013KT P6SM FEW035=

USA.gov is the U.S. government's official web portal to all federal, state and local government web resources and services.